sensor_id;sensor_type;location;lat;lon;timestamp;P1;durP1;ratioP1;P2;durP2;ratioP2
18042;SDS011;9146;48.074;11.968;2023-10-09T00:01:25;6.37;;;3.90;;
18042;SDS011;9146;48.074;11.968;2023-10-09T00:03:51;5.67;;;4.33;;
18042;SDS011;9146;48.074;11.968;2023-10-09T00:06:20;5.93;;;4.40;;
18042;SDS011;9146;48.074;11.968;2023-10-09T00:08:50;5.77;;;4.00;;
18042;SDS011;9146;48.074;11.968;2023-10-09T00:11:20;7.80;;;3.67;;
18042;SDS011;9146;48.074;11.968;2023-10-09T00:13:51;6.97;;;4.30;;
18042;SDS011;9146;48.074;11.968;2023-10-09T00:16:22;5.13;;;3.60;;
18042;SDS011;9146;48.074;11.968;2023-10-09T00:18:58;6.30;;;3.93;;
18042;SDS011;9146;48.074;11.968;2023-10-09T00:21:40;9.90;;;5.60;;
18042;SDS011;9146;48.074;11.968;2023-10-09T00:24:08;13.70;;;6.67;;
18042;SDS011;9146;48.074;11.968;2023-10-09T00:26:39;11.03;;;5.37;;
18042;SDS011;9146;48.074;11.968;2023-10-09T00:29:11;9.40;;;5.83;;
18042;SDS011;9146;48.074;11.968;2023-10-09T00:31:40;7.57;;;4.73;;
18042;SDS011;9146;48.074;11.968;2023-10-09T00:34:15;11.23;;;6.00;;
18042;SDS011;9146;48.074;11.968;2023-10-09T00:36:44;9.70;;;5.03;;
18042;SDS011;9146;48.074;11.968;2023-10-09T00:39:17;7.23;;;4.67;;
18042;SDS011;9146;48.074;11.968;2023-10-09T00:41:59;9.70;;;5.40;;
18042;SDS011;9146;48.074;11.968;2023-10-09T00:44:27;11.10;;;5.93;;
18042;SDS011;9146;48.074;11.968;2023-10-09T00:47:03;8.50;;;5.20;;
18042;SDS011;9146;48.074;11.968;2023-10-09T00:49:43;10.30;;;5.27;;
18042;SDS011;9146;48.074;11.968;2023-10-09T00:52:10;7.33;;;4.83;;
18042;SDS011;9146;48.074;11.968;2023-10-09T00:54:45;9.90;;;6.50;;
18042;SDS011;9146;48.074;11.968;2023-10-09T00:57:16;6.17;;;4.77;;
18042;SDS011;9146;48.074;11.968;2023-10-09T00:59:50;10.13;;;5.90;;
18042;SDS011;9146;48.074;11.968;2023-10-09T01:02:25;9.83;;;4.43;;
18042;SDS011;9146;48.074;11.968;2023-10-09T01:05:01;9.50;;;5.57;;
18042;SDS011;9146;48.074;11.968;2023-10-09T01:07:44;8.17;;;5.00;;
18042;SDS011;9146;48.074;11.968;2023-10-09T01:10:14;6.80;;;4.60;;
18042;SDS011;9146;48.074;11.968;2023-10-09T01:12:43;6.70;;;4.30;;
18042;SDS011;9146;48.074;11.968;2023-10-09T01:15:12;5.97;;;4.50;;
18042;SDS011;9146;48.074;11.968;2023-10-09T01:18:01;6.97;;;4.73;;
18042;SDS011;9146;48.074;11.968;2023-10-09T01:20:32;8.37;;;3.93;;
18042;SDS011;9146;48.074;11.968;2023-10-09T01:23:09;5.53;;;4.10;;
18042;SDS011;9146;48.074;11.968;2023-10-09T01:25:36;5.73;;;4.00;;
18042;SDS011;9146;48.074;11.968;2023-10-09T01:28:10;4.97;;;3.90;;
18042;SDS011;9146;48.074;11.968;2023-10-09T01:30:41;7.47;;;5.03;;
18042;SDS011;9146;48.074;11.968;2023-10-09T01:33:08;5.87;;;4.13;;
18042;SDS011;9146;48.074;11.968;2023-10-09T01:35:47;10.10;;;4.67;;
18042;SDS011;9146;48.074;11.968;2023-10-09T01:38:17;7.90;;;4.90;;
18042;SDS011;9146;48.074;11.968;2023-10-09T01:40:55;9.67;;;3.87;;
18042;SDS011;9146;48.074;11.968;2023-10-09T01:43:28;5.23;;;4.70;;
18042;SDS011;9146;48.074;11.968;2023-10-09T01:45:59;4.60;;;3.47;;
18042;SDS011;9146;48.074;11.968;2023-10-09T01:48:28;5.00;;;4.20;;
18042;SDS011;9146;48.074;11.968;2023-10-09T01:50:58;3.73;;;3.40;;
18042;SDS011;9146;48.074;11.968;2023-10-09T01:53:31;10.53;;;4.40;;
18042;SDS011;9146;48.074;11.968;2023-10-09T01:56:09;8.67;;;4.03;;
18042;SDS011;9146;48.074;11.968;2023-10-09T01:58:40;5.20;;;3.50;;
18042;SDS011;9146;48.074;11.968;2023-10-09T02:01:10;6.57;;;3.97;;
18042;SDS011;9146;48.074;11.968;2023-10-09T02:03:37;4.23;;;3.27;;
18042;SDS011;9146;48.074;11.968;2023-10-09T02:06:07;4.77;;;4.23;;
18042;SDS011;9146;48.074;11.968;2023-10-09T02:08:51;6.60;;;3.80;;
18042;SDS011;9146;48.074;11.968;2023-10-09T02:11:19;11.60;;;4.50;;
18042;SDS011;9146;48.074;11.968;2023-10-09T02:14:01;6.23;;;4.40;;
18042;SDS011;9146;48.074;11.968;2023-10-09T02:16:41;6.27;;;3.90;;
18042;SDS011;9146;48.074;11.968;2023-10-09T02:19:08;7.10;;;4.60;;
18042;SDS011;9146;48.074;11.968;2023-10-09T02:21:54;9.47;;;4.97;;
18042;SDS011;9146;48.074;11.968;2023-10-09T02:24:23;6.30;;;3.87;;
18042;SDS011;9146;48.074;11.968;2023-10-09T02:27:06;6.37;;;4.40;;
18042;SDS011;9146;48.074;11.968;2023-10-09T02:29:36;8.20;;;4.70;;
18042;SDS011;9146;48.074;11.968;2023-10-09T02:32:03;6.80;;;4.13;;
18042;SDS011;9146;48.074;11.968;2023-10-09T02:34:39;6.70;;;4.00;;
18042;SDS011;9146;48.074;11.968;2023-10-09T02:37:06;10.40;;;4.57;;
18042;SDS011;9146;48.074;11.968;2023-10-09T02:39:39;7.80;;;4.70;;
18042;SDS011;9146;48.074;11.968;2023-10-09T02:42:12;7.57;;;4.20;;
18042;SDS011;9146;48.074;11.968;2023-10-09T02:44:49;5.90;;;4.07;;
18042;SDS011;9146;48.074;11.968;2023-10-09T02:47:16;6.47;;;4.03;;
18042;SDS011;9146;48.074;11.968;2023-10-09T02:49:46;9.03;;;4.30;;
18042;SDS011;9146;48.074;11.968;2023-10-09T02:52:15;7.13;;;4.60;;
18042;SDS011;9146;48.074;11.968;2023-10-09T02:54:51;5.37;;;3.53;;
18042;SDS011;9146;48.074;11.968;2023-10-09T02:57:25;5.83;;;4.27;;
18042;SDS011;9146;48.074;11.968;2023-10-09T02:59:54;7.30;;;4.10;;
18042;SDS011;9146;48.074;11.968;2023-10-09T03:02:21;8.00;;;4.40;;
18042;SDS011;9146;48.074;11.968;2023-10-09T03:04:49;9.77;;;3.90;;
18042;SDS011;9146;48.074;11.968;2023-10-09T03:07:20;7.97;;;4.70;;
18042;SDS011;9146;48.074;11.968;2023-10-09T03:09:48;6.97;;;3.90;;
18042;SDS011;9146;48.074;11.968;2023-10-09T03:12:17;8.03;;;4.10;;
18042;SDS011;9146;48.074;11.968;2023-10-09T03:14:47;7.23;;;4.87;;
18042;SDS011;9146;48.074;11.968;2023-10-09T03:17:14;6.57;;;4.37;;
18042;SDS011;9146;48.074;11.968;2023-10-09T03:19:41;10.17;;;6.10;;
18042;SDS011;9146;48.074;11.968;2023-10-09T03:22:08;10.40;;;5.27;;
18042;SDS011;9146;48.074;11.968;2023-10-09T03:24:35;7.53;;;4.70;;
18042;SDS011;9146;48.074;11.968;2023-10-09T03:27:04;9.90;;;6.00;;
18042;SDS011;9146;48.074;11.968;2023-10-09T03:29:31;7.93;;;5.20;;
18042;SDS011;9146;48.074;11.968;2023-10-09T03:31:58;7.50;;;5.80;;
18042;SDS011;9146;48.074;11.968;2023-10-09T03:34:25;9.03;;;5.10;;
18042;SDS011;9146;48.074;11.968;2023-10-09T03:36:53;9.57;;;4.97;;
18042;SDS011;9146;48.074;11.968;2023-10-09T03:39:29;9.27;;;4.30;;
18042;SDS011;9146;48.074;11.968;2023-10-09T03:42:07;7.67;;;4.63;;
18042;SDS011;9146;48.074;11.968;2023-10-09T03:44:44;6.90;;;4.10;;
18042;SDS011;9146;48.074;11.968;2023-10-09T03:47:18;7.63;;;4.87;;
18042;SDS011;9146;48.074;11.968;2023-10-09T03:49:47;7.20;;;4.33;;
18042;SDS011;9146;48.074;11.968;2023-10-09T03:52:16;7.20;;;4.77;;
18042;SDS011;9146;48.074;11.968;2023-10-09T03:54:44;9.30;;;4.60;;
18042;SDS011;9146;48.074;11.968;2023-10-09T03:57:13;6.80;;;4.23;;
18042;SDS011;9146;48.074;11.968;2023-10-09T03:59:43;6.60;;;4.43;;
18042;SDS011;9146;48.074;11.968;2023-10-09T04:02:12;4.97;;;4.27;;
18042;SDS011;9146;48.074;11.968;2023-10-09T04:04:39;5.70;;;4.47;;
18042;SDS011;9146;48.074;11.968;2023-10-09T04:07:10;7.90;;;4.30;;
18042;SDS011;9146;48.074;11.968;2023-10-09T04:09:37;4.13;;;3.60;;
18042;SDS011;9146;48.074;11.968;2023-10-09T04:12:09;7.87;;;4.00;;
18042;SDS011;9146;48.074;11.968;2023-10-09T04:14:51;11.77;;;4.53;;
18042;SDS011;9146;48.074;11.968;2023-10-09T04:17:22;8.30;;;3.90;;
18042;SDS011;9146;48.074;11.968;2023-10-09T04:19:59;8.67;;;4.83;;
18042;SDS011;9146;48.074;11.968;2023-10-09T04:23:02;10.80;;;4.57;;
18042;SDS011;9146;48.074;11.968;2023-10-09T04:25:30;9.50;;;3.63;;
18042;SDS011;9146;48.074;11.968;2023-10-09T04:28:08;4.63;;;3.63;;
18042;SDS011;9146;48.074;11.968;2023-10-09T04:30:39;4.40;;;4.00;;
18042;SDS011;9146;48.074;11.968;2023-10-09T04:33:08;7.00;;;4.70;;
18042;SDS011;9146;48.074;11.968;2023-10-09T04:35:53;7.20;;;4.70;;
18042;SDS011;9146;48.074;11.968;2023-10-09T04:38:34;7.37;;;4.13;;
18042;SDS011;9146;48.074;11.968;2023-10-09T04:41:04;7.83;;;4.23;;
18042;SDS011;9146;48.074;11.968;2023-10-09T04:43:33;7.80;;;4.10;;
18042;SDS011;9146;48.074;11.968;2023-10-09T04:46:00;5.77;;;3.93;;
18042;SDS011;9146;48.074;11.968;2023-10-09T04:48:37;7.77;;;4.13;;
18042;SDS011;9146;48.074;11.968;2023-10-09T04:51:05;6.27;;;4.10;;
18042;SDS011;9146;48.074;11.968;2023-10-09T04:53:46;9.53;;;4.33;;
18042;SDS011;9146;48.074;11.968;2023-10-09T04:56:25;11.90;;;5.93;;
18042;SDS011;9146;48.074;11.968;2023-10-09T04:58:56;6.90;;;4.17;;
18042;SDS011;9146;48.074;11.968;2023-10-09T05:01:30;9.50;;;4.57;;
18042;SDS011;9146;48.074;11.968;2023-10-09T05:04:10;7.53;;;4.10;;
18042;SDS011;9146;48.074;11.968;2023-10-09T05:06:54;8.87;;;4.30;;
18042;SDS011;9146;48.074;11.968;2023-10-09T05:09:21;7.77;;;4.20;;
18042;SDS011;9146;48.074;11.968;2023-10-09T05:11:48;11.40;;;4.40;;
18042;SDS011;9146;48.074;11.968;2023-10-09T05:14:34;7.13;;;4.50;;
18042;SDS011;9146;48.074;11.968;2023-10-09T05:17:06;12.50;;;4.43;;
18042;SDS011;9146;48.074;11.968;2023-10-09T05:19:41;8.37;;;4.27;;
18042;SDS011;9146;48.074;11.968;2023-10-09T05:22:10;10.17;;;5.10;;
18042;SDS011;9146;48.074;11.968;2023-10-09T05:24:54;9.37;;;4.27;;
18042;SDS011;9146;48.074;11.968;2023-10-09T05:27:22;18.60;;;5.60;;
18042;SDS011;9146;48.074;11.968;2023-10-09T05:30:10;12.40;;;4.37;;
18042;SDS011;9146;48.074;11.968;2023-10-09T05:32:53;9.27;;;5.03;;
18042;SDS011;9146;48.074;11.968;2023-10-09T05:35:23;11.40;;;3.43;;
18042;SDS011;9146;48.074;11.968;2023-10-09T05:38:05;10.53;;;3.77;;
18042;SDS011;9146;48.074;11.968;2023-10-09T05:40:48;9.10;;;3.40;;
18042;SDS011;9146;48.074;11.968;2023-10-09T05:43:18;11.90;;;4.33;;
18042;SDS011;9146;48.074;11.968;2023-10-09T05:46:00;13.63;;;3.87;;
18042;SDS011;9146;48.074;11.968;2023-10-09T05:48:41;8.20;;;3.33;;
18042;SDS011;9146;48.074;11.968;2023-10-09T05:51:20;11.87;;;4.10;;
18042;SDS011;9146;48.074;11.968;2023-10-09T05:54:05;16.10;;;3.83;;
18042;SDS011;9146;48.074;11.968;2023-10-09T05:56:49;13.67;;;3.40;;
18042;SDS011;9146;48.074;11.968;2023-10-09T05:59:33;21.23;;;4.00;;
18042;SDS011;9146;48.074;11.968;2023-10-09T06:02:17;11.67;;;3.30;;
18042;SDS011;9146;48.074;11.968;2023-10-09T06:05:04;6.23;;;3.20;;
18042;SDS011;9146;48.074;11.968;2023-10-09T06:07:52;16.77;;;3.87;;
18042;SDS011;9146;48.074;11.968;2023-10-09T06:10:31;11.63;;;3.63;;
18042;SDS011;9146;48.074;11.968;2023-10-09T06:13:05;7.97;;;3.57;;
18042;SDS011;9146;48.074;11.968;2023-10-09T06:15:36;9.83;;;3.20;;
18042;SDS011;9146;48.074;11.968;2023-10-09T06:18:34;12.23;;;3.97;;
18042;SDS011;9146;48.074;11.968;2023-10-09T06:21:09;6.17;;;2.87;;
18042;SDS011;9146;48.074;11.968;2023-10-09T06:23:55;4.20;;;2.57;;
18042;SDS011;9146;48.074;11.968;2023-10-09T06:26:40;8.73;;;3.00;;
18042;SDS011;9146;48.074;11.968;2023-10-09T06:29:16;9.43;;;2.80;;
18042;SDS011;9146;48.074;11.968;2023-10-09T06:31:55;7.63;;;2.80;;
18042;SDS011;9146;48.074;11.968;2023-10-09T06:34:41;6.47;;;2.70;;
18042;SDS011;9146;48.074;11.968;2023-10-09T06:37:12;3.67;;;2.20;;
18042;SDS011;9146;48.074;11.968;2023-10-09T06:39:59;3.63;;;2.23;;
18042;SDS011;9146;48.074;11.968;2023-10-09T06:42:52;11.60;;;3.90;;
18042;SDS011;9146;48.074;11.968;2023-10-09T06:45:20;5.30;;;2.60;;
18042;SDS011;9146;48.074;11.968;2023-10-09T06:47:53;11.30;;;3.03;;
18042;SDS011;9146;48.074;11.968;2023-10-09T06:50:34;5.13;;;3.00;;
18042;SDS011;9146;48.074;11.968;2023-10-09T06:53:17;8.70;;;3.03;;
18042;SDS011;9146;48.074;11.968;2023-10-09T06:55:50;6.57;;;3.57;;
18042;SDS011;9146;48.074;11.968;2023-10-09T06:58:16;14.17;;;3.50;;
18042;SDS011;9146;48.074;11.968;2023-10-09T07:00:51;10.77;;;3.07;;
18042;SDS011;9146;48.074;11.968;2023-10-09T07:03:39;5.60;;;2.70;;
18042;SDS011;9146;48.074;11.968;2023-10-09T07:06:17;8.40;;;3.10;;
18042;SDS011;9146;48.074;11.968;2023-10-09T07:08:50;13.97;;;3.83;;
18042;SDS011;9146;48.074;11.968;2023-10-09T07:11:41;8.30;;;2.70;;
18042;SDS011;9146;48.074;11.968;2023-10-09T07:14:34;10.03;;;3.17;;
18042;SDS011;9146;48.074;11.968;2023-10-09T07:17:27;9.90;;;3.23;;
18042;SDS011;9146;48.074;11.968;2023-10-09T07:20:08;7.83;;;3.27;;
18042;SDS011;9146;48.074;11.968;2023-10-09T07:22:39;14.67;;;3.23;;
18042;SDS011;9146;48.074;11.968;2023-10-09T07:25:19;25.57;;;4.00;;
18042;SDS011;9146;48.074;11.968;2023-10-09T07:28:04;13.80;;;3.30;;
18042;SDS011;9146;48.074;11.968;2023-10-09T07:30:43;9.40;;;3.50;;
18042;SDS011;9146;48.074;11.968;2023-10-09T07:33:11;9.50;;;3.73;;
18042;SDS011;9146;48.074;11.968;2023-10-09T07:35:43;10.80;;;3.40;;
18042;SDS011;9146;48.074;11.968;2023-10-09T07:38:23;15.37;;;4.00;;
18042;SDS011;9146;48.074;11.968;2023-10-09T07:40:55;10.03;;;3.10;;
18042;SDS011;9146;48.074;11.968;2023-10-09T07:43:25;12.30;;;4.50;;
18042;SDS011;9146;48.074;11.968;2023-10-09T07:46:01;11.17;;;3.40;;
18042;SDS011;9146;48.074;11.968;2023-10-09T07:48:46;7.93;;;3.20;;
18042;SDS011;9146;48.074;11.968;2023-10-09T07:51:17;14.17;;;3.80;;
18042;SDS011;9146;48.074;11.968;2023-10-09T07:53:48;13.67;;;3.53;;
18042;SDS011;9146;48.074;11.968;2023-10-09T07:56:24;13.20;;;4.70;;
18042;SDS011;9146;48.074;11.968;2023-10-09T07:58:55;10.07;;;3.63;;
18042;SDS011;9146;48.074;11.968;2023-10-09T08:01:25;14.50;;;4.17;;
18042;SDS011;9146;48.074;11.968;2023-10-09T08:04:01;6.70;;;3.37;;
18042;SDS011;9146;48.074;11.968;2023-10-09T08:06:35;18.40;;;3.47;;
18042;SDS011;9146;48.074;11.968;2023-10-09T08:09:07;14.10;;;3.87;;
18042;SDS011;9146;48.074;11.968;2023-10-09T08:11:54;9.90;;;3.35;;
18042;SDS011;9146;48.074;11.968;2023-10-09T08:14:58;11.53;;;3.50;;
18042;SDS011;9146;48.074;11.968;2023-10-09T08:17:44;11.27;;;3.90;;
18042;SDS011;9146;48.074;11.968;2023-10-09T08:20:16;10.47;;;3.83;;
18042;SDS011;9146;48.074;11.968;2023-10-09T08:22:50;8.90;;;3.03;;
18042;SDS011;9146;48.074;11.968;2023-10-09T08:25:17;17.90;;;3.30;;
18042;SDS011;9146;48.074;11.968;2023-10-09T08:27:57;12.37;;;3.40;;
18042;SDS011;9146;48.074;11.968;2023-10-09T08:30:35;12.10;;;3.47;;
18042;SDS011;9146;48.074;11.968;2023-10-09T08:33:16;11.80;;;3.20;;
18042;SDS011;9146;48.074;11.968;2023-10-09T08:36:06;16.80;;;4.43;;
18042;SDS011;9146;48.074;11.968;2023-10-09T08:38:34;14.43;;;3.50;;
18042;SDS011;9146;48.074;11.968;2023-10-09T08:41:07;14.27;;;4.90;;
18042;SDS011;9146;48.074;11.968;2023-10-09T08:43:53;12.63;;;3.83;;
18042;SDS011;9146;48.074;11.968;2023-10-09T08:46:21;9.30;;;3.27;;
18042;SDS011;9146;48.074;11.968;2023-10-09T08:48:52;11.43;;;3.00;;
18042;SDS011;9146;48.074;11.968;2023-10-09T08:51:20;15.80;;;4.20;;
18042;SDS011;9146;48.074;11.968;2023-10-09T08:53:50;21.20;;;3.83;;
18042;SDS011;9146;48.074;11.968;2023-10-09T08:56:18;13.60;;;3.70;;
18042;SDS011;9146;48.074;11.968;2023-10-09T08:58:49;8.30;;;3.60;;
18042;SDS011;9146;48.074;11.968;2023-10-09T09:01:19;14.53;;;3.50;;
18042;SDS011;9146;48.074;11.968;2023-10-09T09:03:47;8.93;;;3.80;;
18042;SDS011;9146;48.074;11.968;2023-10-09T09:06:15;12.00;;;3.13;;
18042;SDS011;9146;48.074;11.968;2023-10-09T09:08:44;8.37;;;3.37;;
18042;SDS011;9146;48.074;11.968;2023-10-09T09:11:12;14.80;;;4.10;;
18042;SDS011;9146;48.074;11.968;2023-10-09T09:13:42;23.00;;;4.10;;
18042;SDS011;9146;48.074;11.968;2023-10-09T09:16:14;11.40;;;3.50;;
18042;SDS011;9146;48.074;11.968;2023-10-09T09:18:50;11.07;;;3.60;;
18042;SDS011;9146;48.074;11.968;2023-10-09T09:21:25;17.57;;;3.83;;
18042;SDS011;9146;48.074;11.968;2023-10-09T09:23:53;16.27;;;3.83;;
18042;SDS011;9146;48.074;11.968;2023-10-09T09:26:35;15.93;;;4.27;;
18042;SDS011;9146;48.074;11.968;2023-10-09T09:29:13;13.93;;;4.33;;
18042;SDS011;9146;48.074;11.968;2023-10-09T09:31:51;12.90;;;4.13;;
18042;SDS011;9146;48.074;11.968;2023-10-09T09:34:20;23.93;;;3.87;;
18042;SDS011;9146;48.074;11.968;2023-10-09T09:36:51;11.13;;;3.30;;
18042;SDS011;9146;48.074;11.968;2023-10-09T09:39:21;16.67;;;4.57;;
18042;SDS011;9146;48.074;11.968;2023-10-09T09:41:57;14.67;;;4.33;;
18042;SDS011;9146;48.074;11.968;2023-10-09T09:44:31;12.37;;;4.23;;
18042;SDS011;9146;48.074;11.968;2023-10-09T09:47:09;16.27;;;3.50;;
18042;SDS011;9146;48.074;11.968;2023-10-09T09:49:41;12.00;;;3.50;;
18042;SDS011;9146;48.074;11.968;2023-10-09T09:52:08;13.30;;;3.63;;
18042;SDS011;9146;48.074;11.968;2023-10-09T09:54:37;11.73;;;3.83;;
18042;SDS011;9146;48.074;11.968;2023-10-09T09:57:04;11.83;;;3.57;;
18042;SDS011;9146;48.074;11.968;2023-10-09T09:59:37;8.00;;;3.90;;
18042;SDS011;9146;48.074;11.968;2023-10-09T10:02:19;16.27;;;3.83;;
18042;SDS011;9146;48.074;11.968;2023-10-09T10:04:53;10.53;;;3.90;;
18042;SDS011;9146;48.074;11.968;2023-10-09T10:07:23;19.53;;;3.90;;
18042;SDS011;9146;48.074;11.968;2023-10-09T10:09:54;11.77;;;3.70;;
18042;SDS011;9146;48.074;11.968;2023-10-09T10:18:30;11.60;;;3.10;;
18042;SDS011;9146;48.074;11.968;2023-10-09T10:21:11;24.67;;;3.63;;
18042;SDS011;9146;48.074;11.968;2023-10-09T10:23:43;16.23;;;4.47;;
18042;SDS011;9146;48.074;11.968;2023-10-09T10:26:19;16.63;;;3.77;;
18042;SDS011;9146;48.074;11.968;2023-10-09T10:31:57;15.90;;;3.93;;
18042;SDS011;9146;48.074;11.968;2023-10-09T10:34:26;23.00;;;4.63;;
18042;SDS011;9146;48.074;11.968;2023-10-09T10:37:16;16.80;;;4.97;;
18042;SDS011;9146;48.074;11.968;2023-10-09T10:39:49;12.03;;;4.30;;
18042;SDS011;9146;48.074;11.968;2023-10-09T10:42:16;17.93;;;4.20;;
18042;SDS011;9146;48.074;11.968;2023-10-09T10:44:59;15.27;;;4.00;;
18042;SDS011;9146;48.074;11.968;2023-10-09T10:47:27;19.03;;;4.27;;
18042;SDS011;9146;48.074;11.968;2023-10-09T10:49:59;17.93;;;4.70;;
18042;SDS011;9146;48.074;11.968;2023-10-09T10:52:52;19.73;;;4.23;;
18042;SDS011;9146;48.074;11.968;2023-10-09T10:55:22;22.83;;;5.10;;
18042;SDS011;9146;48.074;11.968;2023-10-09T10:58:15;15.23;;;4.83;;
18042;SDS011;9146;48.074;11.968;2023-10-09T11:00:51;18.20;;;4.63;;
18042;SDS011;9146;48.074;11.968;2023-10-09T11:03:37;16.57;;;4.00;;
18042;SDS011;9146;48.074;11.968;2023-10-09T11:06:26;15.20;;;4.43;;
18042;SDS011;9146;48.074;11.968;2023-10-09T11:09:08;20.53;;;4.77;;
18042;SDS011;9146;48.074;11.968;2023-10-09T11:11:46;20.42;;;5.15;;
18042;SDS011;9146;48.074;11.968;2023-10-09T11:14:15;15.30;;;4.60;;
18042;SDS011;9146;48.074;11.968;2023-10-09T11:16:48;23.03;;;4.13;;
18042;SDS011;9146;48.074;11.968;2023-10-09T11:19:19;21.00;;;4.80;;
18042;SDS011;9146;48.074;11.968;2023-10-09T11:21:56;20.37;;;4.90;;
18042;SDS011;9146;48.074;11.968;2023-10-09T11:24:43;19.73;;;5.40;;
18042;SDS011;9146;48.074;11.968;2023-10-09T11:27:12;21.53;;;4.83;;
18042;SDS011;9146;48.074;11.968;2023-10-09T11:29:47;18.97;;;4.90;;
18042;SDS011;9146;48.074;11.968;2023-10-09T11:32:30;28.50;;;6.80;;
18042;SDS011;9146;48.074;11.968;2023-10-09T11:35:09;23.20;;;4.57;;
18042;SDS011;9146;48.074;11.968;2023-10-09T11:37:39;18.10;;;4.60;;
18042;SDS011;9146;48.074;11.968;2023-10-09T11:40:26;24.23;;;5.50;;
18042;SDS011;9146;48.074;11.968;2023-10-09T11:42:59;20.73;;;4.73;;
18042;SDS011;9146;48.074;11.968;2023-10-09T11:45:26;16.37;;;4.30;;
18042;SDS011;9146;48.074;11.968;2023-10-09T11:47:55;19.20;;;4.40;;
18042;SDS011;9146;48.074;11.968;2023-10-09T11:50:38;27.77;;;4.90;;
18042;SDS011;9146;48.074;11.968;2023-10-09T11:53:09;20.03;;;5.00;;
18042;SDS011;9146;48.074;11.968;2023-10-09T11:55:46;24.43;;;4.90;;
18042;SDS011;9146;48.074;11.968;2023-10-09T11:58:14;25.57;;;5.33;;
18042;SDS011;9146;48.074;11.968;2023-10-09T12:00:48;35.37;;;6.93;;
18042;SDS011;9146;48.074;11.968;2023-10-09T12:03:16;23.00;;;5.47;;
18042;SDS011;9146;48.074;11.968;2023-10-09T12:05:48;28.90;;;5.80;;
18042;SDS011;9146;48.074;11.968;2023-10-09T12:08:15;35.10;;;6.17;;
18042;SDS011;9146;48.074;11.968;2023-10-09T12:10:42;27.27;;;5.27;;
18042;SDS011;9146;48.074;11.968;2023-10-09T12:13:10;26.20;;;6.10;;
18042;SDS011;9146;48.074;11.968;2023-10-09T12:15:40;28.53;;;5.33;;
18042;SDS011;9146;48.074;11.968;2023-10-09T12:18:12;27.47;;;5.80;;
18042;SDS011;9146;48.074;11.968;2023-10-09T12:20:42;20.73;;;6.10;;
18042;SDS011;9146;48.074;11.968;2023-10-09T12:23:15;26.50;;;6.03;;
18042;SDS011;9146;48.074;11.968;2023-10-09T12:25:42;19.80;;;5.87;;
18042;SDS011;9146;48.074;11.968;2023-10-09T12:28:12;17.00;;;5.10;;
18042;SDS011;9146;48.074;11.968;2023-10-09T12:30:40;24.00;;;5.50;;
18042;SDS011;9146;48.074;11.968;2023-10-09T12:33:08;28.40;;;5.77;;
18042;SDS011;9146;48.074;11.968;2023-10-09T12:35:38;24.30;;;4.77;;
18042;SDS011;9146;48.074;11.968;2023-10-09T12:38:06;18.90;;;4.77;;
18042;SDS011;9146;48.074;11.968;2023-10-09T12:40:37;20.47;;;5.00;;
18042;SDS011;9146;48.074;11.968;2023-10-09T12:43:06;16.13;;;5.40;;
18042;SDS011;9146;48.074;11.968;2023-10-09T12:45:42;34.43;;;7.33;;
18042;SDS011;9146;48.074;11.968;2023-10-09T12:48:10;17.50;;;5.53;;
18042;SDS011;9146;48.074;11.968;2023-10-09T12:50:37;22.00;;;5.23;;
18042;SDS011;9146;48.074;11.968;2023-10-09T12:53:07;25.07;;;4.77;;
18042;SDS011;9146;48.074;11.968;2023-10-09T12:55:34;21.37;;;5.13;;
18042;SDS011;9146;48.074;11.968;2023-10-09T12:58:05;18.13;;;5.33;;
18042;SDS011;9146;48.074;11.968;2023-10-09T13:00:33;24.93;;;5.43;;
18042;SDS011;9146;48.074;11.968;2023-10-09T13:03:05;21.13;;;4.70;;
18042;SDS011;9146;48.074;11.968;2023-10-09T13:05:42;24.13;;;5.37;;
18042;SDS011;9146;48.074;11.968;2023-10-09T13:08:20;15.00;;;4.60;;
18042;SDS011;9146;48.074;11.968;2023-10-09T13:10:49;22.77;;;4.70;;
18042;SDS011;9146;48.074;11.968;2023-10-09T13:13:27;22.07;;;5.43;;
18042;SDS011;9146;48.074;11.968;2023-10-09T13:16:05;22.27;;;5.90;;
18042;SDS011;9146;48.074;11.968;2023-10-09T13:18:40;23.00;;;5.20;;
18042;SDS011;9146;48.074;11.968;2023-10-09T13:21:14;21.07;;;4.40;;
18042;SDS011;9146;48.074;11.968;2023-10-09T13:23:44;25.33;;;4.60;;
18042;SDS011;9146;48.074;11.968;2023-10-09T13:26:15;17.80;;;4.73;;
18042;SDS011;9146;48.074;11.968;2023-10-09T13:28:49;19.67;;;4.60;;
18042;SDS011;9146;48.074;11.968;2023-10-09T13:31:16;22.67;;;6.10;;
18042;SDS011;9146;48.074;11.968;2023-10-09T13:33:48;28.23;;;5.43;;
18042;SDS011;9146;48.074;11.968;2023-10-09T13:36:19;23.70;;;5.53;;
18042;SDS011;9146;48.074;11.968;2023-10-09T13:38:53;22.03;;;5.47;;
18042;SDS011;9146;48.074;11.968;2023-10-09T13:41:20;18.33;;;5.50;;
18042;SDS011;9146;48.074;11.968;2023-10-09T13:43:47;15.73;;;5.00;;
18042;SDS011;9146;48.074;11.968;2023-10-09T13:46:16;17.20;;;4.90;;
18042;SDS011;9146;48.074;11.968;2023-10-09T13:48:45;24.57;;;5.63;;
18042;SDS011;9146;48.074;11.968;2023-10-09T13:51:15;19.10;;;4.80;;
18042;SDS011;9146;48.074;11.968;2023-10-09T13:53:43;16.37;;;4.20;;
18042;SDS011;9146;48.074;11.968;2023-10-09T13:56:11;23.27;;;4.60;;
18042;SDS011;9146;48.074;11.968;2023-10-09T13:58:43;17.07;;;4.27;;
18042;SDS011;9146;48.074;11.968;2023-10-09T14:01:11;18.67;;;4.93;;
18042;SDS011;9146;48.074;11.968;2023-10-09T14:03:45;18.60;;;5.03;;
18042;SDS011;9146;48.074;11.968;2023-10-09T14:06:17;18.10;;;5.07;;
18042;SDS011;9146;48.074;11.968;2023-10-09T14:08:55;12.87;;;5.30;;
18042;SDS011;9146;48.074;11.968;2023-10-09T14:11:22;14.70;;;4.60;;
18042;SDS011;9146;48.074;11.968;2023-10-09T14:13:50;17.47;;;5.57;;
18042;SDS011;9146;48.074;11.968;2023-10-09T14:16:17;15.27;;;6.03;;
18042;SDS011;9146;48.074;11.968;2023-10-09T14:18:52;13.73;;;4.73;;
18042;SDS011;9146;48.074;11.968;2023-10-09T14:21:27;23.13;;;5.40;;
18042;SDS011;9146;48.074;11.968;2023-10-09T14:23:55;19.80;;;5.43;;
18042;SDS011;9146;48.074;11.968;2023-10-09T14:26:26;20.27;;;5.73;;
18042;SDS011;9146;48.074;11.968;2023-10-09T14:28:54;21.67;;;5.93;;
18042;SDS011;9146;48.074;11.968;2023-10-09T14:31:23;19.57;;;5.97;;
18042;SDS011;9146;48.074;11.968;2023-10-09T14:33:54;25.93;;;5.87;;
18042;SDS011;9146;48.074;11.968;2023-10-09T14:36:21;19.43;;;6.57;;
18042;SDS011;9146;48.074;11.968;2023-10-09T14:38:50;20.93;;;5.23;;
18042;SDS011;9146;48.074;11.968;2023-10-09T14:41:20;11.80;;;5.03;;
18042;SDS011;9146;48.074;11.968;2023-10-09T14:43:49;9.43;;;4.00;;
18042;SDS011;9146;48.074;11.968;2023-10-09T14:46:17;16.73;;;4.63;;
18042;SDS011;9146;48.074;11.968;2023-10-09T14:48:50;14.93;;;4.57;;
18042;SDS011;9146;48.074;11.968;2023-10-09T14:51:18;15.33;;;5.10;;
18042;SDS011;9146;48.074;11.968;2023-10-09T14:53:53;13.47;;;4.50;;
18042;SDS011;9146;48.074;11.968;2023-10-09T14:56:24;8.80;;;3.50;;
18042;SDS011;9146;48.074;11.968;2023-10-09T14:58:55;13.83;;;4.13;;
18042;SDS011;9146;48.074;11.968;2023-10-09T15:01:23;11.73;;;4.57;;
18042;SDS011;9146;48.074;11.968;2023-10-09T15:03:53;6.87;;;3.80;;
18042;SDS011;9146;48.074;11.968;2023-10-09T15:06:22;17.70;;;4.60;;
18042;SDS011;9146;48.074;11.968;2023-10-09T15:08:53;14.10;;;3.83;;
18042;SDS011;9146;48.074;11.968;2023-10-09T15:11:22;10.43;;;3.40;;
18042;SDS011;9146;48.074;11.968;2023-10-09T15:13:49;14.53;;;4.43;;
18042;SDS011;9146;48.074;11.968;2023-10-09T15:16:18;17.33;;;3.93;;
18042;SDS011;9146;48.074;11.968;2023-10-09T15:18:46;23.37;;;5.23;;
18042;SDS011;9146;48.074;11.968;2023-10-09T15:21:17;15.77;;;4.77;;
18042;SDS011;9146;48.074;11.968;2023-10-09T15:23:47;8.10;;;3.70;;
18042;SDS011;9146;48.074;11.968;2023-10-09T15:26:17;10.30;;;3.70;;
18042;SDS011;9146;48.074;11.968;2023-10-09T15:28:44;26.63;;;4.83;;